sensor_id;sensor_type;location;lat;lon;timestamp;P1;durP1;ratioP1;P2;durP2;ratioP2
16304;SDS011;8261;47.678;-122.174;2022-11-30T01:01:43;2.93;;;2.63;;
16304;SDS011;8261;47.678;-122.174;2022-11-30T01:04:14;3.13;;;2.37;;
16304;SDS011;8261;47.678;-122.174;2022-11-30T01:06:47;3.57;;;2.20;;
16304;SDS011;8261;47.678;-122.174;2022-11-30T01:09:19;3.00;;;2.10;;
16304;SDS011;8261;47.678;-122.174;2022-11-30T01:11:51;3.20;;;1.93;;
16304;SDS011;8261;47.678;-122.174;2022-11-30T01:14:23;1.90;;;1.67;;
16304;SDS011;8261;47.678;-122.174;2022-11-30T01:16:56;3.10;;;2.17;;
16304;SDS011;8261;47.678;-122.174;2022-11-30T01:19:33;4.53;;;2.20;;
16304;SDS011;8261;47.678;-122.174;2022-11-30T01:22:04;2.43;;;2.00;;
16304;SDS011;8261;47.678;-122.174;2022-11-30T01:24:36;2.53;;;1.93;;
16304;SDS011;8261;47.678;-122.174;2022-11-30T01:27:08;3.13;;;2.03;;
16304;SDS011;8261;47.678;-122.174;2022-11-30T01:29:45;1.90;;;1.63;;
16304;SDS011;8261;47.678;-122.174;2022-11-30T01:32:18;2.07;;;1.80;;
16304;SDS011;8261;47.678;-122.174;2022-11-30T01:34:51;2.30;;;1.83;;
16304;SDS011;8261;47.678;-122.174;2022-11-30T01:37:22;2.83;;;2.00;;
16304;SDS011;8261;47.678;-122.174;2022-11-30T01:39:54;3.70;;;1.83;;
16304;SDS011;8261;47.678;-122.174;2022-11-30T01:42:27;2.30;;;1.80;;
16304;SDS011;8261;47.678;-122.174;2022-11-30T01:45:00;2.60;;;1.73;;
16304;SDS011;8261;47.678;-122.174;2022-11-30T01:47:35;2.63;;;1.90;;
16304;SDS011;8261;47.678;-122.174;2022-11-30T01:50:10;2.53;;;1.70;;
16304;SDS011;8261;47.678;-122.174;2022-11-30T01:52:45;2.60;;;1.80;;
16304;SDS011;8261;47.678;-122.174;2022-11-30T01:55:19;2.40;;;1.87;;
16304;SDS011;8261;47.678;-122.174;2022-11-30T01:57:55;3.47;;;1.70;;
16304;SDS011;8261;47.678;-122.174;2022-11-30T02:00:30;2.33;;;1.50;;
16304;SDS011;8261;47.678;-122.174;2022-11-30T02:03:06;3.70;;;1.90;;
16304;SDS011;8261;47.678;-122.174;2022-11-30T02:05:42;4.33;;;1.70;;
16304;SDS011;8261;47.678;-122.174;2022-11-30T02:08:15;2.27;;;1.70;;
16304;SDS011;8261;47.678;-122.174;2022-11-30T02:10:50;3.80;;;1.70;;
16304;SDS011;8261;47.678;-122.174;2022-11-30T02:13:37;2.67;;;1.60;;
16304;SDS011;8261;47.678;-122.174;2022-11-30T02:16:31;1.80;;;1.50;;
16304;SDS011;8261;47.678;-122.174;2022-11-30T02:19:19;1.60;;;1.50;;
16304;SDS011;8261;47.678;-122.174;2022-11-30T02:22:18;1.83;;;1.67;;
16304;SDS011;8261;47.678;-122.174;2022-11-30T02:25:06;3.37;;;1.60;;
16304;SDS011;8261;47.678;-122.174;2022-11-30T02:27:47;3.80;;;1.70;;
16304;SDS011;8261;47.678;-122.174;2022-11-30T02:30:41;2.80;;;1.63;;
16304;SDS011;8261;47.678;-122.174;2022-11-30T02:33:21;2.20;;;1.63;;
16304;SDS011;8261;47.678;-122.174;2022-11-30T02:36:01;1.67;;;1.40;;
16304;SDS011;8261;47.678;-122.174;2022-11-30T02:38:45;1.90;;;1.27;;
16304;SDS011;8261;47.678;-122.174;2022-11-30T02:41:18;4.07;;;1.50;;
16304;SDS011;8261;47.678;-122.174;2022-11-30T02:43:51;1.43;;;1.33;;
16304;SDS011;8261;47.678;-122.174;2022-11-30T02:46:33;1.57;;;1.40;;
16304;SDS011;8261;47.678;-122.174;2022-11-30T02:49:16;2.03;;;1.50;;
16304;SDS011;8261;47.678;-122.174;2022-11-30T02:51:57;1.70;;;1.40;;
16304;SDS011;8261;47.678;-122.174;2022-11-30T02:54:37;2.37;;;1.40;;
16304;SDS011;8261;47.678;-122.174;2022-11-30T02:57:09;2.53;;;1.67;;
16304;SDS011;8261;47.678;-122.174;2022-11-30T02:59:42;1.47;;;1.37;;
16304;SDS011;8261;47.678;-122.174;2022-11-30T03:02:18;1.50;;;1.30;;
16304;SDS011;8261;47.678;-122.174;2022-11-30T03:04:58;2.00;;;1.60;;
16304;SDS011;8261;47.678;-122.174;2022-11-30T03:07:34;2.50;;;1.30;;
16304;SDS011;8261;47.678;-122.174;2022-11-30T03:10:12;1.60;;;1.50;;
16304;SDS011;8261;47.678;-122.174;2022-11-30T03:12:44;1.37;;;1.27;;
16304;SDS011;8261;47.678;-122.174;2022-11-30T03:15:21;1.80;;;1.40;;
16304;SDS011;8261;47.678;-122.174;2022-11-30T03:18:03;3.40;;;1.40;;
16304;SDS011;8261;47.678;-122.174;2022-11-30T03:20:39;1.73;;;1.47;;
16304;SDS011;8261;47.678;-122.174;2022-11-30T03:23:14;1.90;;;1.70;;
16304;SDS011;8261;47.678;-122.174;2022-11-30T03:25:47;1.97;;;1.57;;
16304;SDS011;8261;47.678;-122.174;2022-11-30T03:28:23;2.13;;;1.40;;
16304;SDS011;8261;47.678;-122.174;2022-11-30T03:30:55;2.10;;;1.70;;
16304;SDS011;8261;47.678;-122.174;2022-11-30T03:33:31;2.73;;;1.43;;
16304;SDS011;8261;47.678;-122.174;2022-11-30T03:36:03;1.90;;;1.47;;
16304;SDS011;8261;47.678;-122.174;2022-11-30T03:38:43;1.40;;;1.20;;
16304;SDS011;8261;47.678;-122.174;2022-11-30T03:41:16;2.30;;;1.70;;
16304;SDS011;8261;47.678;-122.174;2022-11-30T03:43:48;1.63;;;1.30;;
16304;SDS011;8261;47.678;-122.174;2022-11-30T03:46:38;2.43;;;1.30;;
16304;SDS011;8261;47.678;-122.174;2022-11-30T03:49:13;1.50;;;1.40;;
16304;SDS011;8261;47.678;-122.174;2022-11-30T03:51:46;5.17;;;1.47;;
16304;SDS011;8261;47.678;-122.174;2022-11-30T03:54:18;1.53;;;1.43;;
16304;SDS011;8261;47.678;-122.174;2022-11-30T03:56:49;2.57;;;1.40;;
16304;SDS011;8261;47.678;-122.174;2022-11-30T03:59:31;1.60;;;1.23;;
16304;SDS011;8261;47.678;-122.174;2022-11-30T04:02:05;1.83;;;1.60;;
16304;SDS011;8261;47.678;-122.174;2022-11-30T04:04:40;1.60;;;1.50;;
16304;SDS011;8261;47.678;-122.174;2022-11-30T04:07:15;2.17;;;1.47;;
16304;SDS011;8261;47.678;-122.174;2022-11-30T04:09:47;3.60;;;1.50;;
16304;SDS011;8261;47.678;-122.174;2022-11-30T04:12:21;1.43;;;1.33;;
16304;SDS011;8261;47.678;-122.174;2022-11-30T04:14:52;2.03;;;1.60;;
16304;SDS011;8261;47.678;-122.174;2022-11-30T04:17:24;1.63;;;1.40;;
16304;SDS011;8261;47.678;-122.174;2022-11-30T04:19:58;4.93;;;1.50;;
16304;SDS011;8261;47.678;-122.174;2022-11-30T04:22:32;1.67;;;1.53;;
16304;SDS011;8261;47.678;-122.174;2022-11-30T04:25:06;2.97;;;1.70;;
16304;SDS011;8261;47.678;-122.174;2022-11-30T04:27:38;2.07;;;1.63;;
16304;SDS011;8261;47.678;-122.174;2022-11-30T04:30:10;1.83;;;1.70;;
16304;SDS011;8261;47.678;-122.174;2022-11-30T04:32:43;1.83;;;1.60;;
16304;SDS011;8261;47.678;-122.174;2022-11-30T04:35:17;2.43;;;2.03;;
16304;SDS011;8261;47.678;-122.174;2022-11-30T04:37:52;2.73;;;2.07;;
16304;SDS011;8261;47.678;-122.174;2022-11-30T04:40:25;2.20;;;2.00;;
16304;SDS011;8261;47.678;-122.174;2022-11-30T04:42:57;2.30;;;2.00;;
16304;SDS011;8261;47.678;-122.174;2022-11-30T04:45:28;2.43;;;1.90;;
16304;SDS011;8261;47.678;-122.174;2022-11-30T04:48:01;2.73;;;1.80;;
16304;SDS011;8261;47.678;-122.174;2022-11-30T04:50:36;3.37;;;2.00;;
16304;SDS011;8261;47.678;-122.174;2022-11-30T04:53:08;2.73;;;2.20;;
16304;SDS011;8261;47.678;-122.174;2022-11-30T04:55:42;4.80;;;1.97;;
16304;SDS011;8261;47.678;-122.174;2022-11-30T04:58:13;2.20;;;2.00;;
16304;SDS011;8261;47.678;-122.174;2022-11-30T05:00:46;7.43;;;2.00;;
16304;SDS011;8261;47.678;-122.174;2022-11-30T05:03:18;3.47;;;1.90;;
16304;SDS011;8261;47.678;-122.174;2022-11-30T05:05:55;3.70;;;1.80;;
16304;SDS011;8261;47.678;-122.174;2022-11-30T05:08:27;3.77;;;2.00;;
16304;SDS011;8261;47.678;-122.174;2022-11-30T05:10:58;3.43;;;2.00;;
16304;SDS011;8261;47.678;-122.174;2022-11-30T05:13:29;2.70;;;1.90;;
16304;SDS011;8261;47.678;-122.174;2022-11-30T05:16:00;2.10;;;1.73;;
16304;SDS011;8261;47.678;-122.174;2022-11-30T05:18:31;3.83;;;2.10;;
16304;SDS011;8261;47.678;-122.174;2022-11-30T05:21:05;1.50;;;1.40;;
16304;SDS011;8261;47.678;-122.174;2022-11-30T05:23:36;1.60;;;1.50;;
16304;SDS011;8261;47.678;-122.174;2022-11-30T05:26:07;2.00;;;1.57;;
16304;SDS011;8261;47.678;-122.174;2022-11-30T05:28:40;2.00;;;1.80;;
16304;SDS011;8261;47.678;-122.174;2022-11-30T05:31:11;6.30;;;1.90;;
16304;SDS011;8261;47.678;-122.174;2022-11-30T05:33:43;1.87;;;1.77;;
16304;SDS011;8261;47.678;-122.174;2022-11-30T05:36:20;2.40;;;2.10;;
16304;SDS011;8261;47.678;-122.174;2022-11-30T05:38:52;2.27;;;2.07;;
16304;SDS011;8261;47.678;-122.174;2022-11-30T05:41:22;2.00;;;1.80;;
16304;SDS011;8261;47.678;-122.174;2022-11-30T05:43:54;2.10;;;1.60;;
16304;SDS011;8261;47.678;-122.174;2022-11-30T05:46:25;2.03;;;1.80;;
16304;SDS011;8261;47.678;-122.174;2022-11-30T05:48:56;3.53;;;1.70;;
16304;SDS011;8261;47.678;-122.174;2022-11-30T05:51:30;2.37;;;1.80;;
16304;SDS011;8261;47.678;-122.174;2022-11-30T05:54:01;3.20;;;1.90;;
16304;SDS011;8261;47.678;-122.174;2022-11-30T05:56:33;1.93;;;1.60;;
16304;SDS011;8261;47.678;-122.174;2022-11-30T05:59:04;2.80;;;1.80;;
16304;SDS011;8261;47.678;-122.174;2022-11-30T06:01:35;1.67;;;1.50;;
16304;SDS011;8261;47.678;-122.174;2022-11-30T06:04:07;1.47;;;1.37;;
16304;SDS011;8261;47.678;-122.174;2022-11-30T06:06:40;1.40;;;1.30;;
16304;SDS011;8261;47.678;-122.174;2022-11-30T06:09:11;2.47;;;1.40;;
16304;SDS011;8261;47.678;-122.174;2022-11-30T06:11:44;11.60;;;1.80;;
16304;SDS011;8261;47.678;-122.174;2022-11-30T06:14:15;1.07;;;0.97;;
16304;SDS011;8261;47.678;-122.174;2022-11-30T06:16:46;1.10;;;1.00;;
16304;SDS011;8261;47.678;-122.174;2022-11-30T06:19:17;1.60;;;1.40;;
16304;SDS011;8261;47.678;-122.174;2022-11-30T06:21:50;1.53;;;1.30;;
16304;SDS011;8261;47.678;-122.174;2022-11-30T06:24:22;4.87;;;1.27;;
16304;SDS011;8261;47.678;-122.174;2022-11-30T06:26:53;0.83;;;0.83;;
16304;SDS011;8261;47.678;-122.174;2022-11-30T06:29:24;1.20;;;1.10;;
16304;SDS011;8261;47.678;-122.174;2022-11-30T06:31:55;1.20;;;1.00;;
16304;SDS011;8261;47.678;-122.174;2022-11-30T06:34:28;1.10;;;0.97;;
16304;SDS011;8261;47.678;-122.174;2022-11-30T06:37:01;1.47;;;1.03;;
16304;SDS011;8261;47.678;-122.174;2022-11-30T06:39:33;1.03;;;1.00;;
16304;SDS011;8261;47.678;-122.174;2022-11-30T06:42:24;1.17;;;1.07;;
16304;SDS011;8261;47.678;-122.174;2022-11-30T06:44:57;1.20;;;1.10;;
16304;SDS011;8261;47.678;-122.174;2022-11-30T06:47:28;1.30;;;1.20;;
16304;SDS011;8261;47.678;-122.174;2022-11-30T06:49:59;1.37;;;1.20;;
16304;SDS011;8261;47.678;-122.174;2022-11-30T06:52:33;1.43;;;1.33;;
16304;SDS011;8261;47.678;-122.174;2022-11-30T06:55:05;1.83;;;1.30;;
16304;SDS011;8261;47.678;-122.174;2022-11-30T06:57:37;1.37;;;1.27;;
16304;SDS011;8261;47.678;-122.174;2022-11-30T07:00:11;1.37;;;1.27;;
16304;SDS011;8261;47.678;-122.174;2022-11-30T07:02:49;1.80;;;1.40;;
16304;SDS011;8261;47.678;-122.174;2022-11-30T07:05:21;2.73;;;1.50;;
16304;SDS011;8261;47.678;-122.174;2022-11-30T07:07:54;1.40;;;1.20;;
16304;SDS011;8261;47.678;-122.174;2022-11-30T07:10:27;2.00;;;1.60;;
16304;SDS011;8261;47.678;-122.174;2022-11-30T07:12:58;1.73;;;1.50;;
16304;SDS011;8261;47.678;-122.174;2022-11-30T07:15:30;3.03;;;1.50;;
16304;SDS011;8261;47.678;-122.174;2022-11-30T07:18:02;1.53;;;1.43;;
16304;SDS011;8261;47.678;-122.174;2022-11-30T07:20:33;2.37;;;1.57;;
16304;SDS011;8261;47.678;-122.174;2022-11-30T07:23:08;1.43;;;1.33;;
16304;SDS011;8261;47.678;-122.174;2022-11-30T07:26:18;5.70;;;1.37;;
16304;SDS011;8261;47.678;-122.174;2022-11-30T07:28:54;2.03;;;1.40;;
16304;SDS011;8261;47.678;-122.174;2022-11-30T07:31:27;2.03;;;1.80;;
16304;SDS011;8261;47.678;-122.174;2022-11-30T07:34:03;1.53;;;1.27;;
16304;SDS011;8261;47.678;-122.174;2022-11-30T07:36:36;2.50;;;1.40;;
16304;SDS011;8261;47.678;-122.174;2022-11-30T07:39:10;1.27;;;1.17;;
16304;SDS011;8261;47.678;-122.174;2022-11-30T07:41:42;1.17;;;1.00;;
16304;SDS011;8261;47.678;-122.174;2022-11-30T07:44:14;1.20;;;1.10;;
16304;SDS011;8261;47.678;-122.174;2022-11-30T07:46:45;1.23;;;1.07;;
16304;SDS011;8261;47.678;-122.174;2022-11-30T07:49:17;2.17;;;1.30;;
16304;SDS011;8261;47.678;-122.174;2022-11-30T07:51:49;1.20;;;1.00;;
16304;SDS011;8261;47.678;-122.174;2022-11-30T07:54:23;1.63;;;1.23;;
16304;SDS011;8261;47.678;-122.174;2022-11-30T07:56:55;2.00;;;1.20;;
16304;SDS011;8261;47.678;-122.174;2022-11-30T07:59:27;1.83;;;1.30;;
16304;SDS011;8261;47.678;-122.174;2022-11-30T08:01:59;1.60;;;1.30;;
16304;SDS011;8261;47.678;-122.174;2022-11-30T08:04:31;2.07;;;1.40;;
16304;SDS011;8261;47.678;-122.174;2022-11-30T08:07:06;1.13;;;1.03;;
16304;SDS011;8261;47.678;-122.174;2022-11-30T08:09:39;1.50;;;1.30;;
16304;SDS011;8261;47.678;-122.174;2022-11-30T08:12:11;1.30;;;1.20;;
16304;SDS011;8261;47.678;-122.174;2022-11-30T08:14:43;1.33;;;1.20;;
16304;SDS011;8261;47.678;-122.174;2022-11-30T08:17:34;1.30;;;1.20;;
16304;SDS011;8261;47.678;-122.174;2022-11-30T08:20:06;1.50;;;1.37;;
16304;SDS011;8261;47.678;-122.174;2022-11-30T08:22:39;2.60;;;1.20;;
16304;SDS011;8261;47.678;-122.174;2022-11-30T08:25:12;1.30;;;1.20;;
16304;SDS011;8261;47.678;-122.174;2022-11-30T08:27:43;1.40;;;1.27;;
16304;SDS011;8261;47.678;-122.174;2022-11-30T08:30:14;1.40;;;1.23;;
16304;SDS011;8261;47.678;-122.174;2022-11-30T08:32:45;1.53;;;1.10;;
16304;SDS011;8261;47.678;-122.174;2022-11-30T08:35:17;1.20;;;1.10;;
16304;SDS011;8261;47.678;-122.174;2022-11-30T08:37:57;1.50;;;1.30;;
16304;SDS011;8261;47.678;-122.174;2022-11-30T08:40:31;1.00;;;1.00;;
16304;SDS011;8261;47.678;-122.174;2022-11-30T08:43:02;1.00;;;1.00;;
16304;SDS011;8261;47.678;-122.174;2022-11-30T08:45:34;1.07;;;1.00;;
16304;SDS011;8261;47.678;-122.174;2022-11-30T08:48:06;18.93;;;3.40;;
